Time;durP1;ratioP1;P1;durP2;ratioP2;P2;SDS_P1;SDS_P2;PMS_P1;PMS_P2;Temp;Humidity;BMP_temperature;BMP_pressure;BME280_temperature;BME280_humidity;BME280_pressure;Samples;Min_cycle;Max_cycle;Signal;HPM_P1;HPM_P2
2022/03/26 00:01:50;;;;;;;17.40;8.57;;;;;;;5.17;54.14;101377.50;4438709;32;20400;-69
2022/03/26 00:04:18;;;;;;;15.75;8.30;;;;;;;5.39;52.96;101378.06;4438494;32;20469;-69
2022/03/26 00:06:45;;;;;;;16.45;8.38;;;;;;;5.52;52.53;101374.91;4438440;32;20085;-70
2022/03/26 00:09:12;;;;;;;24.52;8.95;;;;;;;5.63;52.07;101383.91;4438435;32;20119;-69
2022/03/26 00:11:40;;;;;;;29.17;9.02;;;;;;;5.55;52.26;101384.53;4437482;32;20516;-69
2022/03/26 00:14:07;;;;;;;23.92;9.15;;;;;;;5.35;54.32;101386.69;4438333;32;20097;-70
2022/03/26 00:16:35;;;;;;;30.40;9.63;;;;;;;5.14;55.33;101389.63;4438317;32;20081;-70
2022/03/26 00:19:03;;;;;;;22.27;8.35;;;;;;;5.01;56.03;101385.78;4438552;32;20084;-70
2022/03/26 00:21:30;;;;;;;26.52;10.07;;;;;;;4.93;55.64;101390.81;4438347;32;20127;-69
2022/03/26 00:23:58;;;;;;;21.48;9.15;;;;;;;4.92;56.54;101396.88;4438155;32;20092;-69
2022/03/26 00:26:25;;;;;;;28.00;10.48;;;;;;;5.10;54.54;101390.38;4438254;32;20100;-69
2022/03/26 00:28:54;;;;;;;23.55;9.30;;;;;;;4.87;57.30;101392.34;4438043;32;20085;-69
2022/03/26 00:31:21;;;;;;;26.20;9.02;;;;;;;4.89;55.71;101395.91;4438072;32;20164;-69
2022/03/26 00:33:48;;;;;;;21.50;9.05;;;;;;;4.86;56.96;101391.47;4437931;32;20084;-69
2022/03/26 00:36:15;;;;;;;23.90;10.38;;;;;;;4.75;57.73;101388.56;4438092;32;20085;-69
2022/03/26 00:38:43;;;;;;;24.45;9.43;;;;;;;4.85;56.49;101388.84;4438088;32;20401;-70
2022/03/26 00:41:10;;;;;;;19.42;8.93;;;;;;;5.00;55.77;101391.84;4437988;32;20141;-70
2022/03/26 00:43:37;;;;;;;19.95;8.88;;;;;;;4.92;56.03;101393.37;4423401;32;20198;-70
2022/03/26 00:46:04;;;;;;;19.92;9.35;;;;;;;5.06;54.38;101391.16;4438074;32;20085;-69
2022/03/26 00:48:32;;;;;;;24.37;9.25;;;;;;;5.14;55.30;101395.72;4438037;32;20465;-69
2022/03/26 00:50:59;;;;;;;25.50;9.95;;;;;;;4.89;57.01;101388.06;4437868;32;20167;-70
2022/03/26 00:53:27;;;;;;;18.77;8.52;;;;;;;4.83;56.11;101387.91;4437696;32;20447;-69
2022/03/26 00:55:54;;;;;;;36.90;9.88;;;;;;;4.75;57.61;101391.19;4437963;32;20115;-69
2022/03/26 00:58:22;;;;;;;36.30;9.85;;;;;;;4.75;57.69;101391.19;4437839;32;20119;-70
2022/03/26 01:00:49;;;;;;;22.98;9.93;;;;;;;4.74;57.51;101380.72;4437852;32;20455;-70
2022/03/26 01:03:18;;;;;;;21.08;9.68;;;;;;;4.75;57.41;101383.34;4437745;32;20109;-70
2022/03/26 01:05:45;;;;;;;21.02;9.65;;;;;;;4.82;57.96;101386.13;4437555;32;20445;-69
2022/03/26 01:08:13;;;;;;;22.40;8.95;;;;;;;4.77;57.69;101383.38;4437891;32;20743;-70
2022/03/26 01:10:41;;;;;;;19.98;9.05;;;;;;;4.89;56.24;101382.84;4437493;32;20161;-70
2022/03/26 01:13:09;;;;;;;18.23;8.13;;;;;;;4.90;57.33;101376.78;4437447;32;20166;-69
2022/03/26 01:15:36;;;;;;;17.40;9.18;;;;;;;4.83;57.23;101383.56;4437553;32;20130;-69
2022/03/26 01:18:04;;;;;;;27.67;10.23;;;;;;;4.91;56.32;101378.53;4437459;32;20170;-69
2022/03/26 01:20:31;;;;;;;19.92;9.40;;;;;;;4.90;57.56;101382.87;4437443;32;20105;-69
2022/03/26 01:22:59;;;;;;;27.40;11.18;;;;;;;4.74;58.20;101380.72;4437849;32;20144;-69
2022/03/26 01:25:26;;;;;;;23.05;9.30;;;;;;;4.64;58.66;101370.84;4439725;32;20093;-69
2022/03/26 01:27:53;;;;;;;23.62;9.77;;;;;;;4.57;59.45;101369.78;4425087;32;20100;-69
2022/03/26 01:30:21;;;;;;;23.42;9.13;;;;;;;4.49;60.54;101369.56;4439583;32;20128;-69
2022/03/26 01:32:49;;;;;;;17.92;8.45;;;;;;;4.51;60.81;101380.94;4439426;32;20120;-70
2022/03/26 01:35:16;;;;;;;21.83;9.25;;;;;;;4.70;58.45;101371.00;4439720;32;20370;-70
2022/03/26 01:37:43;;;;;;;21.65;8.13;;;;;;;4.52;60.60;101376.59;4439830;32;20088;-70
2022/03/26 01:40:11;;;;;;;16.35;8.38;;;;;;;4.46;60.50;101377.31;4439425;32;20189;-69
2022/03/26 01:42:38;;;;;;;25.98;9.52;;;;;;;4.55;59.02;101371.47;4439711;32;20163;-69
2022/03/26 01:45:09;;;;;;;25.70;11.15;;;;;;;4.61;58.31;101371.66;4439494;32;20127;-69
2022/03/26 01:47:37;;;;;;;21.27;9.73;;;;;;;4.51;59.42;101364.38;4439676;32;20497;-69
2022/03/26 01:50:04;;;;;;;22.55;8.45;;;;;;;4.53;59.36;101361.00;4439412;32;20448;-69
2022/03/26 01:52:32;;;;;;;17.58;8.57;;;;;;;4.63;58.33;101369.06;4424869;32;20136;-69
2022/03/26 01:55:00;;;;;;;19.15;9.45;;;;;;;4.78;57.38;101354.72;4439452;32;20136;-69
2022/03/26 01:57:28;;;;;;;39.28;16.08;;;;;;;4.77;57.29;101358.19;4439534;32;20080;-69
2022/03/26 01:59:55;;;;;;;36.88;17.50;;;;;;;4.78;57.34;101361.66;4439384;32;20178;-69
2022/03/26 02:02:23;;;;;;;31.15;13.57;;;;;;;4.77;57.42;101359.88;4439358;32;20180;-70
2022/03/26 02:04:51;;;;;;;20.67;9.68;;;;;;;4.65;59.19;101364.78;4439282;32;20164;-69
2022/03/26 02:07:18;;;;;;;20.83;8.00;;;;;;;4.53;58.96;101354.88;4439318;32;20542;-69
2022/03/26 02:09:47;;;;;;;19.95;8.18;;;;;;;4.53;58.78;101355.78;4439367;32;20147;-69
2022/03/26 02:12:29;;;;;;;17.33;8.38;;;;;;;4.49;58.67;101353.03;4439501;32;20413;-69
2022/03/26 02:14:58;;;;;;;17.90;8.95;;;;;;;4.37;59.33;101353.56;4439292;32;20091;-69
2022/03/26 02:17:26;;;;;;;20.20;9.15;;;;;;;4.38;59.36;101354.44;4439612;32;20160;-69
2022/03/26 02:19:57;;;;;;;19.50;8.40;;;;;;;4.12;61.84;101351.06;4439223;32;20112;-69
2022/03/26 02:22:27;;;;;;;23.23;9.38;;;;;;;4.02;61.08;101349.91;4439263;32;20156;-69
2022/03/26 02:24:55;;;;;;;24.10;9.27;;;;;;;3.94;63.16;101348.78;4439164;32;20123;-69
2022/03/26 02:27:24;;;;;;;21.95;9.43;;;;;;;3.66;63.90;101354.88;4424648;32;20093;-69
2022/03/26 02:29:52;;;;;;;22.90;8.90;;;;;;;3.79;63.38;101351.81;4439281;32;20105;-69
2022/03/26 02:32:24;;;;;;;20.55;9.07;;;;;;;3.75;64.69;101357.78;4439176;32;20166;-69
2022/03/26 02:34:53;;;;;;;21.83;8.45;;;;;;;3.76;64.49;101344.78;4438678;32;20152;-69
2022/03/26 02:37:32;;;;;;;22.42;8.43;;;;;;;4.00;63.07;101354.22;4439218;32;20093;-69
2022/03/26 02:40:02;;;;;;;26.83;8.90;;;;;;;4.10;62.93;101347.53;4439154;32;20084;-69
2022/03/26 02:42:30;;;;;;;15.50;8.63;;;;;;;3.98;63.31;101345.44;4439087;32;20089;-69
2022/03/26 02:44:57;;;;;;;20.73;8.85;;;;;;;4.03;61.91;101343.88;4439048;32;20425;-69
2022/03/26 02:47:24;;;;;;;18.17;8.38;;;;;;;3.99;63.82;101349.81;4439057;32;20475;-69
2022/03/26 02:49:51;;;;;;;22.33;8.75;;;;;;;3.81;63.49;101353.62;4439102;32;20128;-69
2022/03/26 02:52:18;;;;;;;18.05;8.32;;;;;;;3.72;64.48;101353.34;4439051;32;20189;-69
2022/03/26 02:54:46;;;;;;;16.12;8.15;;;;;;;3.75;63.75;101349.97;4439023;32;20187;-69
2022/03/26 02:57:13;;;;;;;17.27;7.25;;;;;;;3.91;62.63;101353.91;4439075;32;20433;-69
2022/03/26 02:59:40;;;;;;;19.10;9.07;;;;;;;3.96;62.49;101353.22;4439008;32;20124;-70
2022/03/26 03:02:09;;;;;;;19.30;8.30;;;;;;;3.93;63.08;101357.47;4438884;32;20124;-69
2022/03/26 03:04:38;;;;;;;17.55;8.30;;;;;;;3.86;63.01;101352.91;4439059;32;20393;-69
2022/03/26 03:07:05;;;;;;;18.52;8.27;;;;;;;3.75;63.40;101357.78;4438987;32;20097;-69
2022/03/26 03:09:32;;;;;;;18.30;8.68;;;;;;;3.83;62.84;101354.56;4438901;32;20123;-69
2022/03/26 03:11:59;;;;;;;16.75;8.45;;;;;;;3.82;62.83;101351.94;4439221;32;20127;-69
2022/03/26 03:14:27;;;;;;;24.63;8.48;;;;;;;3.95;62.41;101355.78;4438933;32;20094;-69
2022/03/26 03:16:54;;;;;;;17.50;8.15;;;;;;;3.89;62.52;101356.50;4438845;32;20160;-69
2022/03/26 03:19:21;;;;;;;16.15;7.95;;;;;;;3.91;62.30;101351.31;4438933;32;20109;-69
2022/03/26 03:21:48;;;;;;;16.40;8.73;;;;;;;3.98;62.31;101359.34;4438901;32;20491;-69
2022/03/26 03:24:16;;;;;;;20.15;8.23;;;;;;;3.95;62.36;101355.78;4438833;32;20209;-69
2022/03/26 03:26:43;;;;;;;15.90;8.77;;;;;;;3.92;62.45;101360.88;4438938;32;20089;-69
2022/03/26 03:29:10;;;;;;;15.85;7.95;;;;;;;3.79;62.60;101355.31;4438592;32;20109;-69
2022/03/26 03:31:38;;;;;;;17.15;7.82;;;;;;;3.65;63.61;101351.38;4438744;32;20517;-69
2022/03/26 03:34:06;;;;;;;16.05;8.32;;;;;;;3.74;62.88;101353.38;4438715;32;20097;-69
2022/03/26 03:36:33;;;;;;;22.25;8.77;;;;;;;3.67;62.85;101357.50;4439064;32;20089;-69
2022/03/26 03:39:01;;;;;;;23.95;8.75;;;;;;;3.70;63.07;101357.62;4438828;32;20497;-69
2022/03/26 03:41:28;;;;;;;19.90;9.45;;;;;;;3.50;65.36;101362.22;4438706;32;20132;-69
2022/03/26 03:43:55;;;;;;;19.58;8.80;;;;;;;3.44;64.29;101358.53;4438636;32;20413;-69
2022/03/26 03:46:22;;;;;;;22.02;9.70;;;;;;;3.42;65.65;101360.16;4437589;32;20168;-69
2022/03/26 03:48:49;;;;;;;21.20;8.55;;;;;;;3.21;67.63;101363.84;4438480;32;20158;-69
2022/03/26 03:51:16;;;;;;;15.63;8.40;;;;;;;3.26;65.41;101354.47;4438617;32;20869;-69
2022/03/26 03:53:44;;;;;;;18.23;8.88;;;;;;;3.33;65.94;101355.56;4438882;32;20500;-69
2022/03/26 03:56:11;;;;;;;18.37;8.45;;;;;;;3.29;65.48;101356.31;4438502;32;20656;-69
2022/03/26 03:58:38;;;;;;;17.85;8.50;;;;;;;3.33;65.09;101353.84;4424134;32;20089;-69
2022/03/26 04:01:05;;;;;;;17.37;8.60;;;;;;;3.31;64.91;101347.69;4438628;32;20117;-69
2022/03/26 04:03:33;;;;;;;16.55;9.10;;;;;;;3.20;66.93;101350.78;4438532;32;20069;-69
2022/03/26 04:06:01;;;;;;;14.85;9.10;;;;;;;3.25;65.49;101346.59;4438460;32;20170;-69
2022/03/26 04:08:28;;;;;;;16.85;9.15;;;;;;;3.09;67.24;101345.19;4438405;32;20115;-69
2022/03/26 04:10:56;;;;;;;26.00;8.63;;;;;;;3.03;67.85;101350.19;4438567;32;20461;-69
2022/03/26 04:13:23;;;;;;;24.90;9.60;;;;;;;2.97;68.53;101348.28;4438308;32;20474;-69
2022/03/26 04:15:51;;;;;;;16.33;8.93;;;;;;;2.98;68.38;101346.56;4438320;32;20097;-69
2022/03/26 04:18:18;;;;;;;27.05;9.95;;;;;;;3.00;68.16;101345.75;4438369;32;20184;-69
2022/03/26 04:20:46;;;;;;;29.25;11.43;;;;;;;2.96;68.13;101345.63;4438572;32;20135;-69
2022/03/26 04:23:13;;;;;;;24.75;10.15;;;;;;;2.94;68.99;101344.69;4438323;32;20452;-69
2022/03/26 04:25:40;;;;;;;20.17;10.15;;;;;;;2.91;67.92;101349.78;4438137;32;20509;-69
2022/03/26 04:28:08;;;;;;;22.05;10.02;;;;;;;2.76;70.06;101351.03;4438057;32;20501;-69
2022/03/26 04:30:35;;;;;;;21.75;9.98;;;;;;;2.70;69.72;101350.81;4438135;32;20088;-69
2022/03/26 04:33:03;;;;;;;21.02;10.32;;;;;;;2.76;68.92;101356.22;4438131;32;20086;-69
2022/03/26 04:35:31;;;;;;;27.80;10.60;;;;;;;2.81;68.48;101357.25;4438195;32;20483;-69
2022/03/26 04:37:58;;;;;;;18.48;9.75;;;;;;;2.75;69.70;101356.16;4438005;32;20390;-69
2022/03/26 04:40:26;;;;;;;26.90;10.20;;;;;;;2.84;67.83;101364.31;4437999;32;20143;-69
2022/03/26 04:42:54;;;;;;;24.45;10.35;;;;;;;2.72;70.54;101364.75;4437966;32;20086;-69
2022/03/26 04:45:23;;;;;;;21.83;9.75;;;;;;;2.56;71.38;101365.03;4438011;32;20154;-69
2022/03/26 04:47:50;;;;;;;16.80;9.20;;;;;;;2.55;70.70;101368.47;4423694;32;20159;-69
2022/03/26 04:50:17;;;;;;;21.92;10.50;;;;;;;2.56;70.52;101365.03;4438059;32;20142;-69
2022/03/26 04:52:44;;;;;;;21.62;9.57;;;;;;;2.60;70.49;101370.41;4437970;32;20089;-69
2022/03/26 04:55:13;;;;;;;18.67;10.82;;;;;;;2.68;69.94;101367.19;4437817;32;20115;-69
2022/03/26 04:57:42;;;;;;;29.50;10.20;;;;;;;2.69;71.13;101364.66;4437943;32;20097;-69
2022/03/26 05:00:11;;;;;;;25.10;10.25;;;;;;;2.71;70.93;101362.97;4439726;32;20101;-69
2022/03/26 05:02:39;;;;;;;28.52;11.10;;;;;;;2.77;70.06;101372.72;4439964;32;20517;-69
2022/03/26 05:05:07;;;;;;;21.35;10.30;;;;;;;2.87;70.59;101380.91;4439781;32;20146;-69
2022/03/26 05:07:48;;;;;;;32.05;11.38;;;;;;;2.97;70.72;101373.41;4439703;32;20116;-69
2022/03/26 05:10:16;;;;;;;30.15;11.52;;;;;;;3.04;70.05;101376.31;4439752;32;20113;-69
2022/03/26 05:12:44;;;;;;;37.35;10.88;;;;;;;3.07;70.49;101378.09;4439693;32;20191;-69
2022/03/26 05:15:12;;;;;;;26.98;10.52;;;;;;;3.12;69.62;101382.66;4439588;32;20115;-69
2022/03/26 05:17:41;;;;;;;25.48;10.30;;;;;;;3.07;70.03;101385.91;4439909;32;20104;-69
2022/03/26 05:20:09;;;;;;;27.17;11.52;;;;;;;3.09;69.90;101387.75;4439679;32;20096;-69
2022/03/26 05:22:37;;;;;;;31.58;11.10;;;;;;;3.19;69.64;101388.97;4439663;32;20136;-69
2022/03/26 05:25:06;;;;;;;25.00;10.88;;;;;;;3.49;67.27;101378.66;4439704;32;20444;-69
2022/03/26 05:27:34;;;;;;;35.72;10.15;;;;;;;3.72;66.50;101387.25;4439640;32;20097;-69
2022/03/26 05:30:03;;;;;;;29.27;12.32;;;;;;;4.05;64.66;101389.13;4439499;32;20141;-70
2022/03/26 05:32:31;;;;;;;28.70;12.25;;;;;;;4.08;65.72;101389.22;4439544;32;20163;-69
2022/03/26 05:34:58;;;;;;;30.52;12.52;;;;;;;4.06;66.16;101390.88;4439423;32;20517;-69
2022/03/26 05:37:25;;;;;;;29.40;12.25;;;;;;;4.11;66.43;101383.22;4439477;32;20105;-69
2022/03/26 05:39:52;;;;;;;26.65;11.80;;;;;;;4.10;66.93;101389.25;4439511;32;20188;-70
2022/03/26 05:42:20;;;;;;;28.65;12.95;;;;;;;4.16;67.57;101385.09;4439684;32;20515;-69
2022/03/26 05:44:47;;;;;;;31.85;12.37;;;;;;;4.28;66.45;101395.06;4425043;32;20093;-69
2022/03/26 05:47:14;;;;;;;26.75;13.80;;;;;;;4.34;67.26;101396.94;4439448;32;20162;-69
2022/03/26 05:49:41;;;;;;;26.52;12.48;;;;;;;4.41;66.82;101398.88;4439423;32;20101;-69
2022/03/26 05:52:08;;;;;;;47.55;12.50;;;;;;;4.54;65.25;101394.06;4439412;32;20498;-69
2022/03/26 05:54:36;;;;;;;31.35;12.23;;;;;;;4.66;65.72;101403.09;4439392;32;20113;-69
2022/03/26 05:57:03;;;;;;;25.10;13.30;;;;;;;4.82;66.28;101399.19;4439382;32;20120;-70
2022/03/26 05:59:31;;;;;;;31.95;13.40;;;;;;;4.99;65.90;101398.81;4439415;32;20218;-70
2022/03/26 06:01:59;;;;;;;33.97;14.75;;;;;;;5.17;65.25;101406.25;4439370;32;20529;-70
2022/03/26 06:04:28;;;;;;;38.40;14.93;;;;;;;5.34;65.69;101403.22;4439310;32;20123;-69
2022/03/26 06:06:56;;;;;;;32.17;14.40;;;;;;;5.51;64.45;101400.19;4439405;32;20104;-69
2022/03/26 06:09:23;;;;;;;34.30;14.40;;;;;;;5.66;63.16;101401.41;4438706;32;20109;-69
2022/03/26 06:11:51;;;;;;;37.88;14.77;;;;;;;5.81;62.28;101403.50;4439117;32;20111;-69
2022/03/26 06:14:18;;;;;;;32.95;13.98;;;;;;;5.96;62.37;101406.50;4439213;32;20105;-70
2022/03/26 06:16:45;;;;;;;40.03;14.48;;;;;;;6.18;61.73;101408.78;4439317;32;20093;-70
2022/03/26 06:19:14;;;;;;;32.60;13.20;;;;;;;6.40;60.89;101406.63;4439176;32;20200;-70
2022/03/26 06:21:41;;;;;;;26.05;12.30;;;;;;;6.63;58.96;101409.72;4439093;32;20198;-70
2022/03/26 06:24:08;;;;;;;25.88;11.85;;;;;;;6.81;58.39;101410.06;4439325;32;20077;-69
2022/03/26 06:26:37;;;;;;;45.63;12.15;;;;;;;7.05;57.22;101417.53;4439111;32;20108;-69
2022/03/26 06:29:05;;;;;;;38.13;13.00;;;;;;;7.21;57.13;101412.56;4439072;32;20102;-70
2022/03/26 06:31:32;;;;;;;26.35;12.37;;;;;;;7.34;56.76;101412.81;4439037;32;20551;-70
2022/03/26 06:34:00;;;;;;;42.33;11.50;;;;;;;7.36;56.62;101408.50;4439090;32;20430;-70
2022/03/26 06:36:27;;;;;;;28.10;12.18;;;;;;;7.54;55.37;101413.19;4439136;32;20150;-70
2022/03/26 06:38:54;;;;;;;40.08;13.23;;;;;;;7.70;55.44;101410.78;4438914;32;20468;-70
2022/03/26 06:41:22;;;;;;;27.77;13.38;;;;;;;7.80;55.08;101415.34;4439096;32;20156;-70
2022/03/26 06:43:49;;;;;;;29.48;12.15;;;;;;;7.96;54.90;101414.72;4438963;32;20568;-70
2022/03/26 06:46:17;;;;;;;21.77;11.02;;;;;;;8.04;54.40;101412.22;4438856;32;20097;-70
2022/03/26 06:48:44;;;;;;;25.50;11.52;;;;;;;8.31;53.57;101420.50;4439026;32;20160;-70
2022/03/26 06:51:13;;;;;;;30.10;12.45;;;;;;;8.35;52.82;101413.53;4439026;32;20115;-70
2022/03/26 06:53:40;;;;;;;34.65;12.20;;;;;;;8.33;52.60;101420.50;4439149;32;20155;-70
2022/03/26 06:56:08;;;;;;;31.30;13.25;;;;;;;8.50;51.17;101419.03;4438959;32;20109;-70
2022/03/26 06:58:35;;;;;;;31.85;13.07;;;;;;;8.69;52.45;101427.13;4438900;32;20471;-70
2022/03/26 07:01:03;;;;;;;42.70;13.05;;;;;;;8.79;51.27;101427.25;4438904;32;20155;-70
2022/03/26 07:03:31;;;;;;;31.70;13.73;;;;;;;8.87;51.42;101430.00;4438846;32;20097;-70
2022/03/26 07:05:59;;;;;;;34.90;14.13;;;;;;;9.00;51.16;101433.66;4438850;32;20543;-70
2022/03/26 07:08:27;;;;;;;28.52;12.23;;;;;;;9.09;50.65;101423.25;4438851;32;20127;-70
2022/03/26 07:10:55;;;;;;;20.65;11.18;;;;;;;9.26;49.45;101428.69;4438836;32;20183;-70
2022/03/26 07:13:22;;;;;;;71.87;14.32;;;;;;;9.41;49.28;101426.19;4438830;32;20093;-70
2022/03/26 07:15:49;;;;;;;29.35;12.93;;;;;;;9.54;50.10;101430.72;4438702;32;20551;-70
2022/03/26 07:18:17;;;;;;;38.22;13.82;;;;;;;9.71;49.64;101425.56;4438755;32;20097;-70
2022/03/26 07:20:44;;;;;;;27.58;12.68;;;;;;;9.88;49.75;101433.63;4438721;32;20449;-70
2022/03/26 07:23:11;;;;;;;30.92;12.43;;;;;;;10.01;48.22;101424.94;4438927;32;20147;-70
2022/03/26 07:25:38;;;;;;;36.72;13.38;;;;;;;10.09;47.69;101429.38;4438728;32;20112;-70
2022/03/26 07:28:07;;;;;;;29.63;13.30;;;;;;;10.24;47.69;101425.06;4438520;32;20388;-70
2022/03/26 07:30:34;;;;;;;34.50;13.62;;;;;;;10.59;46.61;101431.47;4438774;32;20424;-70
2022/03/26 07:33:02;;;;;;;28.33;13.82;;;;;;;10.72;46.60;101428.00;4438799;32;20151;-70
2022/03/26 07:35:33;;;;;;;29.52;14.18;;;;;;;10.81;46.49;101425.38;4438492;32;20456;-70
2022/03/26 07:38:00;;;;;;;41.83;14.32;;;;;;;11.10;45.75;101432.53;4438779;32;20494;-70
2022/03/26 07:40:29;;;;;;;39.15;15.38;;;;;;;11.23;45.71;101426.41;4438456;32;20081;-70
2022/03/26 07:42:56;;;;;;;36.03;15.02;;;;;;;11.61;44.31;101426.47;4438555;32;20184;-70
2022/03/26 07:45:23;;;;;;;34.67;14.18;;;;;;;11.91;43.31;101417.69;4438534;32;20097;-70
2022/03/26 07:47:51;;;;;;;24.85;11.32;;;;;;;12.14;42.05;101415.00;4438605;32;20113;-70
2022/03/26 07:50:22;;;;;;;20.33;10.82;;;;;;;12.44;40.76;101422.00;4438573;32;20085;-70
2022/03/26 07:52:50;;;;;;;27.80;10.63;;;;;;;12.64;39.62;101415.75;4438531;32;20154;-70
2022/03/26 07:55:17;;;;;;;28.00;11.90;;;;;;;12.84;39.15;101408.62;4423803;32;20105;-70
2022/03/26 07:57:44;;;;;;;31.17;11.52;;;;;;;12.97;38.89;101409.44;4438398;32;20094;-70
2022/03/26 08:00:12;;;;;;;26.15;11.52;;;;;;;13.17;38.11;101414.59;4438388;32;20104;-70
2022/03/26 08:02:39;;;;;;;28.70;10.93;;;;;;;13.27;38.32;101418.09;4438416;32;20549;-70
2022/03/26 08:05:07;;;;;;;30.70;11.30;;;;;;;13.44;37.77;101410.06;4438284;32;20161;-70
2022/03/26 08:07:34;;;;;;;24.73;11.40;;;;;;;13.64;37.89;101418.75;4438345;32;20112;-70
2022/03/26 08:10:01;;;;;;;28.98;12.07;;;;;;;13.63;37.30;101417.84;4438434;32;20166;-70
2022/03/26 08:12:29;;;;;;;28.17;11.60;;;;;;;13.74;36.56;101415.09;4438428;32;20116;-70
2022/03/26 08:14:56;;;;;;;29.83;11.02;;;;;;;13.83;36.44;101419.44;4423774;32;20189;-70
2022/03/26 08:17:25;;;;;;;25.45;11.48;;;;;;;13.98;36.63;101414.00;4438312;32;20135;-70
2022/03/26 08:19:53;;;;;;;26.67;10.52;;;;;;;14.00;36.52;101417.53;4438175;32;20503;-70
2022/03/26 08:22:20;;;;;;;25.40;11.23;;;;;;;14.05;35.93;101409.53;4437999;32;20170;-70
2022/03/26 08:24:47;;;;;;;28.10;10.38;;;;;;;14.21;36.05;101412.91;4438282;32;20101;-70
2022/03/26 08:27:14;;;;;;;25.20;10.90;;;;;;;14.21;36.07;101410.28;4423552;32;20202;-70
2022/03/26 08:29:42;;;;;;;20.80;10.70;;;;;;;14.45;35.59;101410.00;4438449;32;20146;-70
2022/03/26 08:32:09;;;;;;;21.60;10.50;;;;;;;14.60;34.99;101411.62;4438445;32;20093;-70
2022/03/26 08:34:36;;;;;;;28.75;10.95;;;;;;;14.55;34.78;101406.34;4443002;32;20169;-70
2022/03/26 08:37:04;;;;;;;27.25;11.32;;;;;;;14.56;34.69;101409.91;4443420;32;20126;-70
2022/03/26 08:39:31;;;;;;;23.60;10.02;;;;;;;14.66;35.44;101414.19;4443194;32;20456;-70
2022/03/26 08:41:58;;;;;;;31.70;10.40;;;;;;;14.78;34.41;101413.16;4443502;32;20198;-70
2022/03/26 08:44:26;;;;;;;24.30;9.38;;;;;;;14.96;34.43;101412.03;4443183;32;20418;-70
2022/03/26 08:46:53;;;;;;;19.25;8.18;;;;;;;15.08;33.20;101425.12;4443107;32;20802;-70
2022/03/26 08:49:20;;;;;;;18.37;9.55;;;;;;;15.16;33.00;101415.31;4443105;32;20093;-70
2022/03/26 08:51:47;;;;;;;20.92;8.88;;;;;;;15.36;33.82;101416.78;4443119;32;20693;-70
2022/03/26 08:54:14;;;;;;;22.02;9.75;;;;;;;15.50;32.24;101417.44;4443199;32;20132;-70
2022/03/26 08:56:42;;;;;;;18.55;8.70;;;;;;;15.62;32.70;101419.91;4442917;32;20117;-70
2022/03/26 08:59:09;;;;;;;18.77;8.95;;;;;;;15.59;32.73;101427.06;4443088;32;20085;-70
2022/03/26 09:01:36;;;;;;;20.30;9.02;;;;;;;15.67;32.46;101418.09;4443109;32;20105;-70
2022/03/26 09:04:04;;;;;;;15.50;8.30;;;;;;;15.82;32.26;101406.31;4442949;32;20100;-70
2022/03/26 09:06:32;;;;;;;20.80;8.63;;;;;;;15.95;32.48;101417.63;4442937;32;20164;-70
2022/03/26 09:09:00;;;;;;;15.30;7.72;;;;;;;16.20;31.77;101413.59;4443251;32;20098;-70
2022/03/26 09:11:27;;;;;;;24.05;8.35;;;;;;;16.38;31.47;101407.06;4442916;32;20385;-70
2022/03/26 09:13:55;;;;;;;17.45;8.43;;;;;;;16.50;32.17;101408.59;4442730;32;20466;-70
2022/03/26 09:16:22;;;;;;;19.48;8.68;;;;;;;16.49;31.47;101410.37;4442775;32;20119;-70
2022/03/26 09:18:50;;;;;;;21.62;8.40;;;;;;;16.64;31.78;101403.88;4442885;32;20140;-70
2022/03/26 09:21:17;;;;;;;18.10;7.90;;;;;;;16.66;30.96;101403.84;4442566;32;20119;-70
2022/03/26 09:23:44;;;;;;;27.98;11.93;;;;;;;16.79;30.43;101412.50;4442528;32;20441;-70
2022/03/26 09:26:12;;;;;;;22.30;10.13;;;;;;;16.77;30.72;101404.53;4442564;32;20796;-70
2022/03/26 09:28:39;;;;;;;20.77;8.60;;;;;;;16.86;31.78;101404.34;4442434;32;20088;-70
2022/03/26 09:31:06;;;;;;;22.85;9.55;;;;;;;17.09;30.67;101402.94;4442482;32;20128;-70
2022/03/26 09:33:34;;;;;;;16.95;9.32;;;;;;;17.22;30.21;101395.56;4442581;32;20085;-70
2022/03/26 09:36:01;;;;;;;21.17;8.85;;;;;;;17.34;30.41;101400.59;4442396;32;20139;-70
2022/03/26 09:38:28;;;;;;;15.23;7.70;;;;;;;17.36;29.90;101396.09;4442355;32;20085;-70
2022/03/26 09:40:56;;;;;;;18.50;8.68;;;;;;;17.55;29.42;101385.87;4442299;32;20500;-70
2022/03/26 09:43:24;;;;;;;17.00;9.13;;;;;;;17.77;28.71;101384.44;4442327;32;20770;-70
2022/03/26 09:45:51;;;;;;;14.43;8.23;;;;;;;17.94;28.51;101397.34;4439614;32;20097;-70
2022/03/26 09:48:18;;;;;;;17.17;7.10;;;;;;;18.03;29.40;101389.09;4439397;32;20089;-70
2022/03/26 09:50:46;;;;;;;12.27;6.75;;;;;;;18.01;27.71;101382.94;4439479;32;20120;-70
2022/03/26 09:53:13;;;;;;;23.58;8.23;;;;;;;18.25;27.09;101391.19;4439348;32;20507;-70
2022/03/26 09:55:43;;;;;;;13.10;5.75;;;;;;;18.26;27.02;101383.13;4439362;32;20113;-70
2022/03/26 09:58:12;;;;;;;11.00;6.72;;;;;;;18.39;26.31;101389.00;4425159;32;20150;-70
2022/03/26 10:00:39;;;;;;;15.88;6.43;;;;;;;18.14;27.36;101389.69;4439443;32;20085;-70
2022/03/26 10:03:07;;;;;;;17.02;6.28;;;;;;;18.19;26.54;101384.22;4439535;32;20097;-70
2022/03/26 10:05:35;;;;;;;13.55;5.50;;;;;;;18.48;26.48;101380.75;4439405;32;20105;-70
2022/03/26 10:08:16;;;;;;;16.98;6.50;;;;;;;18.56;25.21;101389.41;4439340;32;20562;-70
2022/03/26 10:10:45;;;;;;;17.65;6.47;;;;;;;18.42;26.51;101382.72;4439354;32;20085;-70
2022/03/26 10:13:43;;;;;;;10.30;5.95;;;;;;;18.61;25.16;101383.91;4439396;32;20919;-70
2022/03/26 10:16:12;;;;;;;10.98;6.28;;;;;;;18.95;25.10;101378.50;4439287;32;20148;-70
2022/03/26 10:18:42;;;;;;;12.52;5.80;;;;;;;18.92;25.34;101393.72;4439481;32;20141;-70
2022/03/26 10:21:18;;;;;;;12.20;6.82;;;;;;;18.94;24.89;101381.19;4439422;32;20558;-70
2022/03/26 10:23:50;;;;;;;11.32;6.22;;;;;;;19.17;25.04;101377.81;4439115;32;20120;-70
2022/03/26 10:26:23;;;;;;;20.40;6.60;;;;;;;19.23;25.30;101375.81;4439299;32;20149;-71
2022/03/26 10:28:52;;;;;;;21.50;7.20;;;;;;;19.43;24.97;101375.16;4439012;32;20089;-70
2022/03/26 10:34:20;;;;;;;13.00;6.68;;;;;;;19.93;24.44;101366.38;4439257;32;20085;-70
2022/03/26 10:36:58;;;;;;;10.60;5.57;;;;;;;19.94;23.36;101361.00;4438525;32;20119;-70
2022/03/26 10:39:28;;;;;;;21.17;6.95;;;;;;;20.07;23.21;101372.16;4438943;32;20111;-70
2022/03/26 10:41:57;;;;;;;14.23;5.62;;;;;;;20.02;23.22;101355.37;4439225;32;20140;-70
2022/03/26 10:44:29;;;;;;;17.48;6.82;;;;;;;20.15;22.97;101361.16;4438581;32;20455;-70
2022/03/26 10:46:59;;;;;;;18.60;6.05;;;;;;;20.13;22.38;101350.50;4438880;32;20105;-70
2022/03/26 10:49:32;;;;;;;9.80;6.00;;;;;;;19.55;23.72;101358.72;4438613;32;20077;-70
2022/03/26 10:52:14;;;;;;;19.23;6.12;;;;;;;19.59;23.98;101351.47;4438789;32;20152;-70
2022/03/26 10:54:41;;;;;;;19.83;6.05;;;;;;;20.01;23.30;101348.28;4438678;32;20108;-70
2022/03/26 10:57:10;;;;;;;12.23;6.50;;;;;;;20.30;23.31;101348.09;4438249;32;20132;-70
2022/03/26 10:59:37;;;;;;;10.95;5.93;;;;;;;20.43;22.71;101344.97;4438947;32;20105;-70
2022/03/26 11:02:04;;;;;;;9.55;6.12;;;;;;;20.26;22.23;101340.22;4439140;32;20127;-70
2022/03/26 11:04:32;;;;;;;8.20;6.10;;;;;;;20.65;22.29;101337.00;4438774;32;20202;-70
2022/03/26 11:07:00;;;;;;;15.40;6.20;;;;;;;21.72;20.73;101332.66;4438931;32;20136;-70
2022/03/26 11:09:28;;;;;;;11.18;6.28;;;;;;;22.35;20.35;101328.06;4438990;32;20081;-70
2022/03/26 11:11:58;;;;;;;16.95;6.62;;;;;;;22.86;19.78;101331.97;4438800;32;20085;-70
2022/03/26 11:14:33;;;;;;;15.27;6.53;;;;;;;23.60;19.78;101322.94;4438728;32;20105;-70
2022/03/26 11:17:30;;;;;;;13.77;7.05;;;;;;;24.11;19.15;101326.59;4438851;32;20085;-70
2022/03/26 11:20:45;;;;;;;19.23;7.22;;;;;;;24.32;19.27;101322.72;4438748;32;20112;-70
2022/03/26 11:23:16;;;;;;;15.02;8.63;;;;;;;26.06;17.64;101321.72;4422208;32;20152;-70
2022/03/26 11:26:05;;;;;;;18.67;8.15;;;;;;;26.08;17.30;101313.50;4438621;32;20436;-70
2022/03/26 11:28:59;;;;;;;13.00;7.50;;;;;;;25.50;17.60;101317.88;4438493;32;20560;-70